sensor_id;sensor_type;location;lat;lon;timestamp;temperature;humidity
13148;DHT22;6639;50.956;4.242;2022-10-19T00:01:46;19.60;98.80
13148;DHT22;6639;50.956;4.242;2022-10-19T00:04:13;19.30;99.80
13148;DHT22;6639;50.956;4.242;2022-10-19T00:06:40;18.80;99.90
13148;DHT22;6639;50.956;4.242;2022-10-19T00:09:09;18.90;99.90
13148;DHT22;6639;50.956;4.242;2022-10-19T00:11:39;19.20;99.90
13148;DHT22;6639;50.956;4.242;2022-10-19T00:14:07;19.10;99.90
13148;DHT22;6639;50.956;4.242;2022-10-19T00:16:36;18.70;99.90
13148;DHT22;6639;50.956;4.242;2022-10-19T00:19:05;18.20;99.90
13148;DHT22;6639;50.956;4.242;2022-10-19T00:21:32;18.10;99.90
13148;DHT22;6639;50.956;4.242;2022-10-19T00:23:59;17.70;99.90
13148;DHT22;6639;50.956;4.242;2022-10-19T00:26:26;17.90;99.90
13148;DHT22;6639;50.956;4.242;2022-10-19T00:28:55;17.90;99.90
13148;DHT22;6639;50.956;4.242;2022-10-19T00:31:23;18.50;99.90
13148;DHT22;6639;50.956;4.242;2022-10-19T00:33:50;18.20;99.90
13148;DHT22;6639;50.956;4.242;2022-10-19T00:36:19;18.00;99.90
13148;DHT22;6639;50.956;4.242;2022-10-19T00:38:47;17.90;99.90
13148;DHT22;6639;50.956;4.242;2022-10-19T00:41:14;18.00;99.90
13148;DHT22;6639;50.956;4.242;2022-10-19T00:43:53;18.60;99.90
13148;DHT22;6639;50.956;4.242;2022-10-19T00:46:22;18.70;99.90
13148;DHT22;6639;50.956;4.242;2022-10-19T00:48:49;18.10;99.90
13148;DHT22;6639;50.956;4.242;2022-10-19T00:51:18;18.60;99.90
13148;DHT22;6639;50.956;4.242;2022-10-19T00:53:45;18.70;99.90
13148;DHT22;6639;50.956;4.242;2022-10-19T00:56:13;18.60;99.90
13148;DHT22;6639;50.956;4.242;2022-10-19T00:58:42;18.80;99.90
13148;DHT22;6639;50.956;4.242;2022-10-19T01:01:12;19.00;99.90
13148;DHT22;6639;50.956;4.242;2022-10-19T01:03:41;18.90;99.90
13148;DHT22;6639;50.956;4.242;2022-10-19T01:06:09;18.10;99.90
13148;DHT22;6639;50.956;4.242;2022-10-19T01:08:37;17.40;99.90
13148;DHT22;6639;50.956;4.242;2022-10-19T01:11:15;17.50;99.90
13148;DHT22;6639;50.956;4.242;2022-10-19T01:13:50;17.40;99.90
13148;DHT22;6639;50.956;4.242;2022-10-19T01:16:27;16.30;99.90
13148;DHT22;6639;50.956;4.242;2022-10-19T01:19:04;16.60;99.90
13148;DHT22;6639;50.956;4.242;2022-10-19T01:21:38;17.00;99.90
13148;DHT22;6639;50.956;4.242;2022-10-19T01:24:47;16.90;99.90
13148;DHT22;6639;50.956;4.242;2022-10-19T01:27:52;17.60;99.90
13148;DHT22;6639;50.956;4.242;2022-10-19T01:30:28;18.30;99.90
13148;DHT22;6639;50.956;4.242;2022-10-19T01:33:22;18.10;99.90
13148;DHT22;6639;50.956;4.242;2022-10-19T01:36:00;17.70;99.90
13148;DHT22;6639;50.956;4.242;2022-10-19T01:38:34;17.30;99.90
13148;DHT22;6639;50.956;4.242;2022-10-19T01:41:13;17.00;99.90
13148;DHT22;6639;50.956;4.242;2022-10-19T01:43:44;17.20;99.90
13148;DHT22;6639;50.956;4.242;2022-10-19T01:46:17;17.00;99.90
13148;DHT22;6639;50.956;4.242;2022-10-19T01:48:50;16.80;99.90
13148;DHT22;6639;50.956;4.242;2022-10-19T01:51:23;16.70;99.90
13148;DHT22;6639;50.956;4.242;2022-10-19T01:53:54;16.80;99.90
13148;DHT22;6639;50.956;4.242;2022-10-19T01:56:25;17.30;99.90
13148;DHT22;6639;50.956;4.242;2022-10-19T01:58:55;16.90;99.90
13148;DHT22;6639;50.956;4.242;2022-10-19T02:01:26;17.10;99.90
13148;DHT22;6639;50.956;4.242;2022-10-19T02:03:56;17.00;99.90
13148;DHT22;6639;50.956;4.242;2022-10-19T02:06:23;17.10;99.90
13148;DHT22;6639;50.956;4.242;2022-10-19T02:08:52;16.10;99.90
13148;DHT22;6639;50.956;4.242;2022-10-19T02:11:20;16.10;99.90
13148;DHT22;6639;50.956;4.242;2022-10-19T02:13:50;16.10;99.90
13148;DHT22;6639;50.956;4.242;2022-10-19T02:16:22;15.80;99.90
13148;DHT22;6639;50.956;4.242;2022-10-19T02:18:54;16.10;99.90
13148;DHT22;6639;50.956;4.242;2022-10-19T02:21:21;16.60;99.90
13148;DHT22;6639;50.956;4.242;2022-10-19T02:23:48;17.10;99.90
13148;DHT22;6639;50.956;4.242;2022-10-19T02:26:15;17.80;99.90
13148;DHT22;6639;50.956;4.242;2022-10-19T02:28:42;18.30;99.90
13148;DHT22;6639;50.956;4.242;2022-10-19T02:31:09;18.50;99.90
13148;DHT22;6639;50.956;4.242;2022-10-19T02:33:36;18.20;99.90
13148;DHT22;6639;50.956;4.242;2022-10-19T02:36:05;17.30;99.90
13148;DHT22;6639;50.956;4.242;2022-10-19T02:38:33;16.90;99.90
13148;DHT22;6639;50.956;4.242;2022-10-19T02:41:04;16.20;99.90
13148;DHT22;6639;50.956;4.242;2022-10-19T02:43:33;15.60;99.90
13148;DHT22;6639;50.956;4.242;2022-10-19T02:46:06;16.10;99.90
13148;DHT22;6639;50.956;4.242;2022-10-19T02:48:37;15.50;99.90
13148;DHT22;6639;50.956;4.242;2022-10-19T02:51:06;15.50;99.90
13148;DHT22;6639;50.956;4.242;2022-10-19T02:53:51;15.80;99.90
13148;DHT22;6639;50.956;4.242;2022-10-19T02:56:18;15.70;99.90
13148;DHT22;6639;50.956;4.242;2022-10-19T02:58:45;15.90;99.90
13148;DHT22;6639;50.956;4.242;2022-10-19T03:01:12;15.60;99.90
13148;DHT22;6639;50.956;4.242;2022-10-19T03:03:39;15.90;99.90
13148;DHT22;6639;50.956;4.242;2022-10-19T03:06:08;15.70;99.90
13148;DHT22;6639;50.956;4.242;2022-10-19T03:08:35;15.40;99.90
13148;DHT22;6639;50.956;4.242;2022-10-19T03:11:01;15.70;99.90
13148;DHT22;6639;50.956;4.242;2022-10-19T03:13:28;15.50;99.90
13148;DHT22;6639;50.956;4.242;2022-10-19T03:15:55;16.00;99.90
13148;DHT22;6639;50.956;4.242;2022-10-19T03:18:22;16.20;99.90
13148;DHT22;6639;50.956;4.242;2022-10-19T03:20:49;16.20;99.90
13148;DHT22;6639;50.956;4.242;2022-10-19T03:23:17;16.60;99.90
13148;DHT22;6639;50.956;4.242;2022-10-19T03:25:44;16.30;99.90
13148;DHT22;6639;50.956;4.242;2022-10-19T03:28:11;16.60;99.90
13148;DHT22;6639;50.956;4.242;2022-10-19T03:30:38;16.60;99.90
13148;DHT22;6639;50.956;4.242;2022-10-19T03:33:04;16.30;99.90
13148;DHT22;6639;50.956;4.242;2022-10-19T03:35:31;16.10;99.90
13148;DHT22;6639;50.956;4.242;2022-10-19T03:37:58;16.00;99.90
13148;DHT22;6639;50.956;4.242;2022-10-19T03:40:26;15.90;99.90
13148;DHT22;6639;50.956;4.242;2022-10-19T03:42:53;16.10;99.90
13148;DHT22;6639;50.956;4.242;2022-10-19T03:45:20;16.10;99.90
13148;DHT22;6639;50.956;4.242;2022-10-19T03:47:48;15.90;99.90
13148;DHT22;6639;50.956;4.242;2022-10-19T03:50:15;15.80;99.90
13148;DHT22;6639;50.956;4.242;2022-10-19T03:52:43;15.90;99.90
13148;DHT22;6639;50.956;4.242;2022-10-19T03:55:10;16.10;99.90
13148;DHT22;6639;50.956;4.242;2022-10-19T03:57:38;16.20;99.90
13148;DHT22;6639;50.956;4.242;2022-10-19T04:00:06;15.90;99.90
13148;DHT22;6639;50.956;4.242;2022-10-19T04:02:33;16.20;99.90
13148;DHT22;6639;50.956;4.242;2022-10-19T04:05:00;16.80;99.90
13148;DHT22;6639;50.956;4.242;2022-10-19T04:07:27;17.40;99.90
13148;DHT22;6639;50.956;4.242;2022-10-19T04:09:53;17.40;99.90
13148;DHT22;6639;50.956;4.242;2022-10-19T04:12:20;17.50;99.90
13148;DHT22;6639;50.956;4.242;2022-10-19T04:14:48;17.30;99.90
13148;DHT22;6639;50.956;4.242;2022-10-19T04:17:15;17.50;99.90
13148;DHT22;6639;50.956;4.242;2022-10-19T04:19:42;17.70;99.90
13148;DHT22;6639;50.956;4.242;2022-10-19T04:22:09;17.00;99.90
13148;DHT22;6639;50.956;4.242;2022-10-19T04:24:36;16.80;99.90
13148;DHT22;6639;50.956;4.242;2022-10-19T04:27:03;16.90;99.90
13148;DHT22;6639;50.956;4.242;2022-10-19T04:29:29;16.60;99.90
13148;DHT22;6639;50.956;4.242;2022-10-19T04:31:58;16.40;99.90
13148;DHT22;6639;50.956;4.242;2022-10-19T04:34:24;16.50;99.90
13148;DHT22;6639;50.956;4.242;2022-10-19T04:36:52;16.30;99.90
13148;DHT22;6639;50.956;4.242;2022-10-19T04:39:18;16.10;99.90
13148;DHT22;6639;50.956;4.242;2022-10-19T04:41:45;16.50;99.90
13148;DHT22;6639;50.956;4.242;2022-10-19T04:44:12;16.80;99.90
13148;DHT22;6639;50.956;4.242;2022-10-19T04:46:39;16.90;99.90
13148;DHT22;6639;50.956;4.242;2022-10-19T04:49:08;17.00;99.90
13148;DHT22;6639;50.956;4.242;2022-10-19T04:51:35;17.50;99.90
13148;DHT22;6639;50.956;4.242;2022-10-19T04:54:02;17.70;99.90
13148;DHT22;6639;50.956;4.242;2022-10-19T04:56:29;17.10;99.90
13148;DHT22;6639;50.956;4.242;2022-10-19T04:58:58;16.50;99.90
13148;DHT22;6639;50.956;4.242;2022-10-19T05:01:26;16.60;99.90
13148;DHT22;6639;50.956;4.242;2022-10-19T05:03:54;16.50;99.90
13148;DHT22;6639;50.956;4.242;2022-10-19T05:06:23;15.90;99.90
13148;DHT22;6639;50.956;4.242;2022-10-19T05:08:50;16.00;99.90
13148;DHT22;6639;50.956;4.242;2022-10-19T05:11:18;16.70;99.90
13148;DHT22;6639;50.956;4.242;2022-10-19T05:13:45;17.10;99.90
13148;DHT22;6639;50.956;4.242;2022-10-19T05:16:14;17.30;99.90
13148;DHT22;6639;50.956;4.242;2022-10-19T05:18:45;17.20;99.90
13148;DHT22;6639;50.956;4.242;2022-10-19T05:21:13;17.00;99.90
13148;DHT22;6639;50.956;4.242;2022-10-19T05:23:41;17.10;99.90
13148;DHT22;6639;50.956;4.242;2022-10-19T05:26:10;16.90;99.90
13148;DHT22;6639;50.956;4.242;2022-10-19T05:28:37;16.50;99.90
13148;DHT22;6639;50.956;4.242;2022-10-19T05:31:06;15.70;99.90
13148;DHT22;6639;50.956;4.242;2022-10-19T05:33:33;15.50;99.90
13148;DHT22;6639;50.956;4.242;2022-10-19T05:36:09;15.20;99.90
13148;DHT22;6639;50.956;4.242;2022-10-19T05:38:36;15.40;99.90
13148;DHT22;6639;50.956;4.242;2022-10-19T05:41:05;14.80;99.90
13148;DHT22;6639;50.956;4.242;2022-10-19T05:43:32;15.00;99.90
13148;DHT22;6639;50.956;4.242;2022-10-19T05:46:02;15.10;99.90
13148;DHT22;6639;50.956;4.242;2022-10-19T05:48:29;14.90;99.90
13148;DHT22;6639;50.956;4.242;2022-10-19T05:50:58;14.50;99.90
13148;DHT22;6639;50.956;4.242;2022-10-19T05:53:25;14.50;99.90
13148;DHT22;6639;50.956;4.242;2022-10-19T05:55:52;14.70;99.90
13148;DHT22;6639;50.956;4.242;2022-10-19T05:58:21;15.10;99.90
13148;DHT22;6639;50.956;4.242;2022-10-19T06:00:52;15.30;99.90
13148;DHT22;6639;50.956;4.242;2022-10-19T06:03:19;15.10;99.90
13148;DHT22;6639;50.956;4.242;2022-10-19T06:05:47;14.60;99.90
13148;DHT22;6639;50.956;4.242;2022-10-19T06:08:14;14.00;99.90
13148;DHT22;6639;50.956;4.242;2022-10-19T06:10:44;14.20;99.90
13148;DHT22;6639;50.956;4.242;2022-10-19T06:13:14;14.20;99.90
13148;DHT22;6639;50.956;4.242;2022-10-19T06:15:43;14.70;99.90
13148;DHT22;6639;50.956;4.242;2022-10-19T06:18:11;14.40;99.90
13148;DHT22;6639;50.956;4.242;2022-10-19T06:20:39;14.40;99.90
13148;DHT22;6639;50.956;4.242;2022-10-19T06:23:07;14.40;99.90
13148;DHT22;6639;50.956;4.242;2022-10-19T06:25:34;14.50;99.90
13148;DHT22;6639;50.956;4.242;2022-10-19T06:28:02;14.60;99.90
13148;DHT22;6639;50.956;4.242;2022-10-19T06:30:29;15.00;99.90
13148;DHT22;6639;50.956;4.242;2022-10-19T06:32:58;15.00;99.90
13148;DHT22;6639;50.956;4.242;2022-10-19T06:35:25;15.30;99.90
13148;DHT22;6639;50.956;4.242;2022-10-19T06:37:52;14.90;99.90
13148;DHT22;6639;50.956;4.242;2022-10-19T06:40:21;15.20;99.90
13148;DHT22;6639;50.956;4.242;2022-10-19T06:42:48;15.40;99.90
13148;DHT22;6639;50.956;4.242;2022-10-19T06:45:15;14.60;99.90
13148;DHT22;6639;50.956;4.242;2022-10-19T06:47:42;14.50;99.90
13148;DHT22;6639;50.956;4.242;2022-10-19T06:50:10;14.40;99.90
13148;DHT22;6639;50.956;4.242;2022-10-19T06:52:37;14.30;99.90
13148;DHT22;6639;50.956;4.242;2022-10-19T06:55:06;14.80;99.90
13148;DHT22;6639;50.956;4.242;2022-10-19T06:57:33;14.90;99.90
13148;DHT22;6639;50.956;4.242;2022-10-19T07:00:00;14.50;99.90
13148;DHT22;6639;50.956;4.242;2022-10-19T07:02:27;14.50;99.90
13148;DHT22;6639;50.956;4.242;2022-10-19T07:04:53;14.40;99.90
13148;DHT22;6639;50.956;4.242;2022-10-19T07:07:22;14.80;99.90
13148;DHT22;6639;50.956;4.242;2022-10-19T07:09:48;14.20;99.90
13148;DHT22;6639;50.956;4.242;2022-10-19T07:12:15;14.20;99.90
13148;DHT22;6639;50.956;4.242;2022-10-19T07:14:42;14.40;99.90
13148;DHT22;6639;50.956;4.242;2022-10-19T07:17:10;14.70;99.90
13148;DHT22;6639;50.956;4.242;2022-10-19T07:19:37;15.10;99.90
13148;DHT22;6639;50.956;4.242;2022-10-19T07:22:04;15.50;99.90
13148;DHT22;6639;50.956;4.242;2022-10-19T07:24:32;16.30;99.90
13148;DHT22;6639;50.956;4.242;2022-10-19T07:26:59;16.40;99.90
13148;DHT22;6639;50.956;4.242;2022-10-19T07:29:25;16.80;99.90
13148;DHT22;6639;50.956;4.242;2022-10-19T07:31:52;17.50;99.90
13148;DHT22;6639;50.956;4.242;2022-10-19T07:34:19;17.90;99.90
13148;DHT22;6639;50.956;4.242;2022-10-19T07:36:46;18.20;99.90
13148;DHT22;6639;50.956;4.242;2022-10-19T07:39:14;18.30;99.90
13148;DHT22;6639;50.956;4.242;2022-10-19T07:41:44;18.10;99.90
13148;DHT22;6639;50.956;4.242;2022-10-19T07:44:11;18.50;99.90
13148;DHT22;6639;50.956;4.242;2022-10-19T07:46:38;19.00;99.90
13148;DHT22;6639;50.956;4.242;2022-10-19T07:49:11;18.50;99.90
13148;DHT22;6639;50.956;4.242;2022-10-19T07:51:39;18.30;99.90
13148;DHT22;6639;50.956;4.242;2022-10-19T07:54:06;17.70;99.90
13148;DHT22;6639;50.956;4.242;2022-10-19T07:56:33;17.80;99.90
13148;DHT22;6639;50.956;4.242;2022-10-19T07:59:02;18.10;99.90
13148;DHT22;6639;50.956;4.242;2022-10-19T08:01:31;17.90;99.90
13148;DHT22;6639;50.956;4.242;2022-10-19T08:03:59;18.00;99.90
13148;DHT22;6639;50.956;4.242;2022-10-19T08:06:27;17.60;99.90
13148;DHT22;6639;50.956;4.242;2022-10-19T08:08:54;18.00;99.90
13148;DHT22;6639;50.956;4.242;2022-10-19T08:11:23;18.40;99.90
13148;DHT22;6639;50.956;4.242;2022-10-19T08:13:52;18.00;99.90
13148;DHT22;6639;50.956;4.242;2022-10-19T08:16:23;18.00;99.90
13148;DHT22;6639;50.956;4.242;2022-10-19T08:18:51;18.50;99.90
13148;DHT22;6639;50.956;4.242;2022-10-19T08:21:18;18.50;99.90
13148;DHT22;6639;50.956;4.242;2022-10-19T08:23:45;18.50;99.90
13148;DHT22;6639;50.956;4.242;2022-10-19T08:26:12;18.30;99.90
13148;DHT22;6639;50.956;4.242;2022-10-19T08:28:39;18.10;99.90
13148;DHT22;6639;50.956;4.242;2022-10-19T08:31:11;17.70;99.90
13148;DHT22;6639;50.956;4.242;2022-10-19T08:33:39;17.80;99.90
13148;DHT22;6639;50.956;4.242;2022-10-19T08:36:08;18.00;99.90
13148;DHT22;6639;50.956;4.242;2022-10-19T08:38:36;18.30;99.90
13148;DHT22;6639;50.956;4.242;2022-10-19T08:41:14;18.50;99.90
13148;DHT22;6639;50.956;4.242;2022-10-19T08:43:55;18.40;99.90
13148;DHT22;6639;50.956;4.242;2022-10-19T08:46:29;18.40;99.90
13148;DHT22;6639;50.956;4.242;2022-10-19T08:49:01;17.60;99.90
13148;DHT22;6639;50.956;4.242;2022-10-19T08:51:30;17.50;99.90
13148;DHT22;6639;50.956;4.242;2022-10-19T08:53:59;17.70;99.90
13148;DHT22;6639;50.956;4.242;2022-10-19T08:56:30;17.70;99.90
13148;DHT22;6639;50.956;4.242;2022-10-19T08:59:11;17.90;99.90
13148;DHT22;6639;50.956;4.242;2022-10-19T09:01:41;18.00;99.90
13148;DHT22;6639;50.956;4.242;2022-10-19T09:04:18;18.00;99.90
13148;DHT22;6639;50.956;4.242;2022-10-19T09:06:58;18.60;99.90
13148;DHT22;6639;50.956;4.242;2022-10-19T09:09:29;19.40;99.90
13148;DHT22;6639;50.956;4.242;2022-10-19T09:12:02;19.60;99.90
13148;DHT22;6639;50.956;4.242;2022-10-19T09:14:31;19.30;99.90
13148;DHT22;6639;50.956;4.242;2022-10-19T09:17:03;18.90;99.90
13148;DHT22;6639;50.956;4.242;2022-10-19T09:19:33;19.10;99.90
13148;DHT22;6639;50.956;4.242;2022-10-19T09:22:03;19.20;99.90
13148;DHT22;6639;50.956;4.242;2022-10-19T09:24:39;19.70;99.90
13148;DHT22;6639;50.956;4.242;2022-10-19T09:27:13;19.40;99.90
13148;DHT22;6639;50.956;4.242;2022-10-19T09:29:44;19.80;99.90
13148;DHT22;6639;50.956;4.242;2022-10-19T09:32:15;20.10;99.90
13148;DHT22;6639;50.956;4.242;2022-10-19T09:34:49;20.40;99.90
13148;DHT22;6639;50.956;4.242;2022-10-19T09:37:17;20.70;99.90
13148;DHT22;6639;50.956;4.242;2022-10-19T09:39:44;20.60;99.90
13148;DHT22;6639;50.956;4.242;2022-10-19T09:42:20;20.80;99.90
13148;DHT22;6639;50.956;4.242;2022-10-19T09:44:49;21.10;99.90
13148;DHT22;6639;50.956;4.242;2022-10-19T09:47:33;21.80;99.90
13148;DHT22;6639;50.956;4.242;2022-10-19T09:50:15;22.10;99.90
13148;DHT22;6639;50.956;4.242;2022-10-19T09:52:43;21.70;99.90
13148;DHT22;6639;50.956;4.242;2022-10-19T09:55:20;21.20;99.90
13148;DHT22;6639;50.956;4.242;2022-10-19T09:57:50;21.50;99.90
13148;DHT22;6639;50.956;4.242;2022-10-19T10:00:30;21.70;99.90
13148;DHT22;6639;50.956;4.242;2022-10-19T10:02:57;21.90;99.90
13148;DHT22;6639;50.956;4.242;2022-10-19T10:05:31;22.00;99.90
13148;DHT22;6639;50.956;4.242;2022-10-19T10:07:58;21.70;99.90
13148;DHT22;6639;50.956;4.242;2022-10-19T10:10:28;21.60;99.90
13148;DHT22;6639;50.956;4.242;2022-10-19T10:12:57;21.70;99.90
13148;DHT22;6639;50.956;4.242;2022-10-19T10:15:26;22.20;99.90
13148;DHT22;6639;50.956;4.242;2022-10-19T10:17:54;22.50;99.90
13148;DHT22;6639;50.956;4.242;2022-10-19T10:20:24;23.00;99.90
13148;DHT22;6639;50.956;4.242;2022-10-19T10:22:56;23.10;99.90
13148;DHT22;6639;50.956;4.242;2022-10-19T10:25:27;23.20;99.90
13148;DHT22;6639;50.956;4.242;2022-10-19T10:27:57;22.80;99.90
13148;DHT22;6639;50.956;4.242;2022-10-19T10:30:26;22.10;99.90
13148;DHT22;6639;50.956;4.242;2022-10-19T10:32:55;21.80;99.90
13148;DHT22;6639;50.956;4.242;2022-10-19T10:35:24;21.70;99.90
13148;DHT22;6639;50.956;4.242;2022-10-19T10:38:03;21.80;99.90
13148;DHT22;6639;50.956;4.242;2022-10-19T10:40:31;21.80;99.90
13148;DHT22;6639;50.956;4.242;2022-10-19T10:43:03;22.60;99.90
13148;DHT22;6639;50.956;4.242;2022-10-19T10:45:32;22.90;99.90
13148;DHT22;6639;50.956;4.242;2022-10-19T10:48:15;22.40;99.90
13148;DHT22;6639;50.956;4.242;2022-10-19T10:50:42;22.20;99.90
13148;DHT22;6639;50.956;4.242;2022-10-19T10:53:31;22.30;99.90
13148;DHT22;6639;50.956;4.242;2022-10-19T10:55:58;22.30;99.90
13148;DHT22;6639;50.956;4.242;2022-10-19T10:58:34;21.90;99.90
13148;DHT22;6639;50.956;4.242;2022-10-19T11:01:05;22.00;99.90
13148;DHT22;6639;50.956;4.242;2022-10-19T11:03:35;22.00;99.90
13148;DHT22;6639;50.956;4.242;2022-10-19T11:06:03;22.40;99.90
13148;DHT22;6639;50.956;4.242;2022-10-19T11:08:37;22.10;99.90
13148;DHT22;6639;50.956;4.242;2022-10-19T11:11:14;22.00;99.90
13148;DHT22;6639;50.956;4.242;2022-10-19T11:13:47;22.10;99.90
13148;DHT22;6639;50.956;4.242;2022-10-19T11:16:17;22.40;99.90
13148;DHT22;6639;50.956;4.242;2022-10-19T11:18:47;22.20;99.90
13148;DHT22;6639;50.956;4.242;2022-10-19T11:21:19;21.80;99.90
13148;DHT22;6639;50.956;4.242;2022-10-19T11:23:57;21.70;99.90
13148;DHT22;6639;50.956;4.242;2022-10-19T11:26:38;21.80;99.90
13148;DHT22;6639;50.956;4.242;2022-10-19T11:29:22;21.70;99.90
13148;DHT22;6639;50.956;4.242;2022-10-19T11:31:53;22.40;99.90
13148;DHT22;6639;50.956;4.242;2022-10-19T11:34:48;22.10;99.90
13148;DHT22;6639;50.956;4.242;2022-10-19T11:37:21;21.90;99.90
13148;DHT22;6639;50.956;4.242;2022-10-19T11:40:02;21.80;99.90
13148;DHT22;6639;50.956;4.242;2022-10-19T11:42:46;21.50;99.90
13148;DHT22;6639;50.956;4.242;2022-10-19T11:45:24;21.60;99.90
13148;DHT22;6639;50.956;4.242;2022-10-19T11:48:09;21.40;99.90
13148;DHT22;6639;50.956;4.242;2022-10-19T11:50:46;21.80;99.90
13148;DHT22;6639;50.956;4.242;2022-10-19T11:53:25;21.10;99.90
13148;DHT22;6639;50.956;4.242;2022-10-19T11:56:01;21.20;99.90
13148;DHT22;6639;50.956;4.242;2022-10-19T11:58:37;21.20;99.90
13148;DHT22;6639;50.956;4.242;2022-10-19T12:01:12;21.70;99.90
13148;DHT22;6639;50.956;4.242;2022-10-19T12:03:55;21.60;99.90
13148;DHT22;6639;50.956;4.242;2022-10-19T12:06:32;21.60;99.90
13148;DHT22;6639;50.956;4.242;2022-10-19T12:09:15;22.00;99.90
13148;DHT22;6639;50.956;4.242;2022-10-19T12:11:54;22.40;99.90
13148;DHT22;6639;50.956;4.242;2022-10-19T12:14:29;22.50;99.90
13148;DHT22;6639;50.956;4.242;2022-10-19T12:17:01;21.70;99.90
13148;DHT22;6639;50.956;4.242;2022-10-19T12:19:35;21.80;99.90
13148;DHT22;6639;50.956;4.242;2022-10-19T12:22:06;21.90;99.90
13148;DHT22;6639;50.956;4.242;2022-10-19T12:24:36;22.10;99.90
13148;DHT22;6639;50.956;4.242;2022-10-19T12:27:06;22.30;99.90
13148;DHT22;6639;50.956;4.242;2022-10-19T12:29:39;22.00;99.90
13148;DHT22;6639;50.956;4.242;2022-10-19T12:32:10;22.10;99.90
13148;DHT22;6639;50.956;4.242;2022-10-19T12:34:45;22.20;99.90
13148;DHT22;6639;50.956;4.242;2022-10-19T12:37:20;22.80;99.90
13148;DHT22;6639;50.956;4.242;2022-10-19T12:39:54;22.60;99.90
13148;DHT22;6639;50.956;4.242;2022-10-19T12:42:28;22.20;99.90
13148;DHT22;6639;50.956;4.242;2022-10-19T12:45:12;22.10;99.90
13148;DHT22;6639;50.956;4.242;2022-10-19T12:48:17;22.50;99.90
13148;DHT22;6639;50.956;4.242;2022-10-19T12:51:02;22.50;99.90
13148;DHT22;6639;50.956;4.242;2022-10-19T12:53:31;22.60;99.90
13148;DHT22;6639;50.956;4.242;2022-10-19T12:56:02;22.20;99.90
13148;DHT22;6639;50.956;4.242;2022-10-19T12:58:35;22.30;99.90
13148;DHT22;6639;50.956;4.242;2022-10-19T13:01:05;22.20;99.90
13148;DHT22;6639;50.956;4.242;2022-10-19T13:03:35;21.60;99.90
13148;DHT22;6639;50.956;4.242;2022-10-19T13:06:10;21.70;99.90
13148;DHT22;6639;50.956;4.242;2022-10-19T13:08:45;22.20;99.90
13148;DHT22;6639;50.956;4.242;2022-10-19T13:11:14;22.00;99.90
13148;DHT22;6639;50.956;4.242;2022-10-19T13:13:56;22.30;99.90
13148;DHT22;6639;50.956;4.242;2022-10-19T13:16:56;22.30;99.90
13148;DHT22;6639;50.956;4.242;2022-10-19T13:19:24;22.00;99.90
13148;DHT22;6639;50.956;4.242;2022-10-19T13:24:35;22.10;99.90
13148;DHT22;6639;50.956;4.242;2022-10-19T13:27:34;21.70;99.90
13148;DHT22;6639;50.956;4.242;2022-10-19T13:30:04;21.50;99.90
13148;DHT22;6639;50.956;4.242;2022-10-19T13:32:38;21.50;99.90
13148;DHT22;6639;50.956;4.242;2022-10-19T13:35:28;21.90;99.90
13148;DHT22;6639;50.956;4.242;2022-10-19T13:38:18;22.40;99.90
13148;DHT22;6639;50.956;4.242;2022-10-19T13:41:00;22.40;99.90
13148;DHT22;6639;50.956;4.242;2022-10-19T13:43:31;22.20;99.90
13148;DHT22;6639;50.956;4.242;2022-10-19T13:46:09;21.90;99.90
13148;DHT22;6639;50.956;4.242;2022-10-19T13:51:37;22.70;99.90
13148;DHT22;6639;50.956;4.242;2022-10-19T13:54:17;23.10;99.90
13148;DHT22;6639;50.956;4.242;2022-10-19T13:57:05;22.40;99.90
13148;DHT22;6639;50.956;4.242;2022-10-19T13:59:51;22.30;99.90
13148;DHT22;6639;50.956;4.242;2022-10-19T14:02:51;22.40;99.90
13148;DHT22;6639;50.956;4.242;2022-10-19T14:05:37;22.50;99.90
13148;DHT22;6639;50.956;4.242;2022-10-19T14:08:18;22.50;99.90
13148;DHT22;6639;50.956;4.242;2022-10-19T14:10:56;22.50;99.90
13148;DHT22;6639;50.956;4.242;2022-10-19T14:13:24;22.10;99.90
13148;DHT22;6639;50.956;4.242;2022-10-19T14:15:54;21.90;99.90
13148;DHT22;6639;50.956;4.242;2022-10-19T14:18:27;21.80;99.90
13148;DHT22;6639;50.956;4.242;2022-10-19T14:20:58;22.20;99.90
13148;DHT22;6639;50.956;4.242;2022-10-19T14:23:26;22.60;99.90
13148;DHT22;6639;50.956;4.242;2022-10-19T14:25:56;22.90;99.90
13148;DHT22;6639;50.956;4.242;2022-10-19T14:28:23;22.00;99.90
13148;DHT22;6639;50.956;4.242;2022-10-19T14:30:55;22.50;99.90
13148;DHT22;6639;50.956;4.242;2022-10-19T14:33:24;22.60;99.90
13148;DHT22;6639;50.956;4.242;2022-10-19T14:35:52;22.70;99.90
13148;DHT22;6639;50.956;4.242;2022-10-19T14:38:23;22.10;99.90
13148;DHT22;6639;50.956;4.242;2022-10-19T14:40:51;21.70;99.90
13148;DHT22;6639;50.956;4.242;2022-10-19T14:43:19;21.80;99.90
13148;DHT22;6639;50.956;4.242;2022-10-19T14:46:09;22.10;99.90
13148;DHT22;6639;50.956;4.242;2022-10-19T14:48:39;22.20;99.90
13148;DHT22;6639;50.956;4.242;2022-10-19T14:51:14;22.00;99.90
13148;DHT22;6639;50.956;4.242;2022-10-19T14:53:45;21.60;99.90
13148;DHT22;6639;50.956;4.242;2022-10-19T14:56:16;21.30;99.90
13148;DHT22;6639;50.956;4.242;2022-10-19T14:58:48;21.30;99.90
13148;DHT22;6639;50.956;4.242;2022-10-19T15:01:17;20.90;99.90
13148;DHT22;6639;50.956;4.242;2022-10-19T15:03:47;20.80;99.90
13148;DHT22;6639;50.956;4.242;2022-10-19T15:06:17;20.90;99.90
13148;DHT22;6639;50.956;4.242;2022-10-19T15:08:47;20.70;99.90
13148;DHT22;6639;50.956;4.242;2022-10-19T15:11:25;20.30;99.90
13148;DHT22;6639;50.956;4.242;2022-10-19T15:13:58;20.30;99.90
13148;DHT22;6639;50.956;4.242;2022-10-19T15:16:31;20.40;99.90
13148;DHT22;6639;50.956;4.242;2022-10-19T15:19:04;20.90;99.90
13148;DHT22;6639;50.956;4.242;2022-10-19T15:21:31;20.80;99.90
13148;DHT22;6639;50.956;4.242;2022-10-19T15:24:06;20.80;99.90
13148;DHT22;6639;50.956;4.242;2022-10-19T15:26:34;20.70;99.90
13148;DHT22;6639;50.956;4.242;2022-10-19T15:29:08;20.90;99.90
13148;DHT22;6639;50.956;4.242;2022-10-19T15:31:37;20.30;99.90
13148;DHT22;6639;50.956;4.242;2022-10-19T15:34:05;19.90;99.90
13148;DHT22;6639;50.956;4.242;2022-10-19T15:36:53;19.60;99.90
13148;DHT22;6639;50.956;4.242;2022-10-19T15:39:29;20.00;99.90
13148;DHT22;6639;50.956;4.242;2022-10-19T15:42:21;19.70;99.90
13148;DHT22;6639;50.956;4.242;2022-10-19T15:44:48;19.80;99.90
13148;DHT22;6639;50.956;4.242;2022-10-19T15:47:21;20.20;99.90
13148;DHT22;6639;50.956;4.242;2022-10-19T15:49:55;19.50;99.90
13148;DHT22;6639;50.956;4.242;2022-10-19T15:52:24;19.50;99.90
13148;DHT22;6639;50.956;4.242;2022-10-19T15:54:52;19.20;99.90
13148;DHT22;6639;50.956;4.242;2022-10-19T15:57:25;19.70;99.90
13148;DHT22;6639;50.956;4.242;2022-10-19T15:59:53;20.20;99.90
13148;DHT22;6639;50.956;4.242;2022-10-19T16:02:20;19.80;99.90
13148;DHT22;6639;50.956;4.242;2022-10-19T16:04:47;19.60;99.90
13148;DHT22;6639;50.956;4.242;2022-10-19T16:07:20;20.10;99.90
13148;DHT22;6639;50.956;4.242;2022-10-19T16:09:49;20.00;99.90
13148;DHT22;6639;50.956;4.242;2022-10-19T16:12:16;20.00;99.90
13148;DHT22;6639;50.956;4.242;2022-10-19T16:14:43;19.40;99.90
13148;DHT22;6639;50.956;4.242;2022-10-19T16:17:11;19.00;99.90